Time;durP1;ratioP1;P1;durP2;ratioP2;P2;SDS_P1;SDS_P2;PMS_P1;PMS_P2;Temp;Humidity;BMP_temperature;BMP_pressure;BME280_temperature;BME280_humidity;BME280_pressure;Samples;Min_cycle;Max_cycle;Signal;HPM_P1;HPM_P2
2022/05/19 00:02:12;;;;;;;;;10.75;9.50;;;;;25.51;53.94;101377.47;2461205;27;45761;-77
2022/05/19 00:03:23;;;;;;;;;10.50;9.50;;;;;25.51;53.98;101382.00;2461203;27;45279;-77
2022/05/19 00:04:34;;;;;;;;;11.25;11.25;;;;;25.51;54.05;101390.94;2460899;27;45336;-77
2022/05/19 00:05:44;;;;;;;;;10.25;10.25;;;;;25.51;53.80;101388.25;2470410;27;45224;-77
2022/05/19 00:06:55;;;;;;;;;10.50;9.75;;;;;25.51;53.78;101392.75;2458861;27;46326;-77
2022/05/19 00:08:06;;;;;;;;;11.25;11.25;;;;;25.49;53.62;101379.44;2454763;27;45192;-77
2022/05/19 00:09:17;;;;;;;;;12.25;10.00;;;;;25.49;53.71;101392.03;2453005;27;48518;-77
2022/05/19 00:10:27;;;;;;;;;12.75;12.00;;;;;25.46;53.96;101390.47;2461999;27;45377;-77
2022/05/19 00:11:40;;;;;;;;;9.50;9.50;;;;;25.47;54.11;101391.34;2460383;27;46280;-77
2022/05/19 00:12:50;;;;;;;;;9.75;9.75;;;;;25.46;53.31;101386.94;2460661;27;45449;-77
2022/05/19 00:14:01;;;;;;;;;13.25;12.25;;;;;25.46;53.91;101386.94;2461024;27;45750;-77
2022/05/19 00:15:12;;;;;;;;;10.25;8.25;;;;;25.45;53.80;101387.94;2460517;27;44608;-77
2022/05/19 00:16:23;;;;;;;;;10.25;10.25;;;;;25.44;52.40;101396.97;2461167;27;45232;-77
2022/05/19 00:17:33;;;;;;;;;12.75;12.00;;;;;25.40;53.80;101393.72;2460329;27;45276;-77
2022/05/19 00:18:43;;;;;;;;;12.50;10.50;;;;;25.39;53.94;101394.69;2460092;27;45186;-77
2022/05/19 00:19:54;;;;;;;;;13.00;11.00;;;;;25.39;53.47;101405.44;2460068;27;45186;-77
2022/05/19 00:21:05;;;;;;;;;11.75;10.25;;;;;25.39;53.22;101394.69;2459157;27;48006;-77
2022/05/19 00:22:16;;;;;;;;;12.00;12.00;;;;;25.37;53.96;101400.22;2459353;27;45397;-77
2022/05/19 00:23:26;;;;;;;;;10.25;10.25;;;;;25.38;54.47;101399.25;2460747;27;46098;-77
2022/05/19 00:24:36;;;;;;;;;13.75;13.25;;;;;25.38;54.17;101399.25;2461228;27;45491;-77
2022/05/19 00:25:47;;;;;;;;;13.25;12.00;;;;;25.38;54.12;101399.25;2461053;27;46522;-77
2022/05/19 00:26:58;;;;;;;;;14.25;12.00;;;;;25.36;54.20;101403.88;2460414;27;44829;-77
2022/05/19 00:28:09;;;;;;;;;14.00;13.00;;;;;25.33;54.59;101393.41;2459697;27;46959;-77
2022/05/19 00:29:19;;;;;;;;;13.50;13.00;;;;;25.32;54.24;101402.44;2460176;27;45329;-77
2022/05/19 00:30:30;;;;;;;;;14.50;12.75;;;;;25.30;54.18;101404.41;2460520;27;45325;-81
2022/05/19 00:31:40;;;;;;;;;14.75;13.00;;;;;25.30;54.39;101401.72;2460694;27;45321;-79
2022/05/19 00:32:51;;;;;;;;;7.50;7.50;;;;;25.29;54.69;101391.94;2459837;27;46385;-78
2022/05/19 00:34:03;;;;;;;;;15.00;13.00;;;;;25.32;54.47;101397.06;2461112;27;45305;-77
2022/05/19 00:35:15;;;;;;;;;14.00;12.50;;;;;25.32;54.70;101391.69;2459524;27;45841;-79
2022/05/19 00:36:26;;;;;;;;;14.00;12.25;;;;;25.34;55.13;101386.16;2460640;27;45191;-78
2022/05/19 00:37:36;;;;;;;;;12.00;11.25;;;;;25.32;54.53;101385.44;2460722;27;46417;-78
2022/05/19 00:38:47;;;;;;;;;12.75;12.75;;;;;25.32;54.73;101385.44;2460948;27;45211;-77
2022/05/19 00:39:58;;;;;;;;;12.00;11.25;;;;;25.31;54.61;101381.88;2460193;27;46152;-80
2022/05/19 00:41:10;;;;;;;;;12.75;10.50;;;;;25.33;54.67;101385.31;2460582;27;45320;-82
2022/05/19 00:44:16;;;;;;;;;12.50;11.75;;;;;25.30;54.85;101374.81;2460913;27;45238;-83
2022/05/19 00:45:35;;;;;;;;;13.00;12.50;;;;;25.28;54.94;101377.66;2459454;27;46403;-85
2022/05/19 00:46:57;;;;;;;;;14.75;13.00;;;;;25.26;55.15;101363.47;2460983;27;44744;-83
2022/05/19 00:48:25;;;;;;;;;12.00;12.00;;;;;25.24;54.96;101359.19;2460676;27;46791;-80
2022/05/19 00:49:40;;;;;;;;;13.50;12.75;;;;;25.25;54.89;101361.78;2460958;27;45215;-84
2022/05/19 00:50:58;;;;;;;;;13.75;11.75;;;;;25.22;55.02;101355.78;2459784;27;45385;-84
2022/05/19 00:52:39;;;;;;;;;12.75;10.75;;;;;25.20;54.87;101352.41;2460095;27;45218;-84
2022/05/19 00:53:54;;;;;;;;;11.00;11.00;;;;;25.21;55.01;101354.09;2460294;27;47193;-84
2022/05/19 00:55:12;;;;;;;;;14.00;13.00;;;;;25.20;55.08;101357.78;2460179;27;44633;-84
2022/05/19 00:56:32;;;;;;;;;16.25;11.50;;;;;25.18;55.16;101355.22;2460284;27;45310;-84
2022/05/19 00:57:50;;;;;;;;;10.75;9.00;;;;;25.14;55.10;101343.88;2460778;27;45249;-83
2022/05/19 00:59:29;;;;;;;;;12.00;11.75;;;;;25.12;55.41;101351.22;2460742;27;45625;-82
2022/05/19 01:00:41;;;;;;;;;11.25;11.25;;;;;25.11;55.14;101345.97;2460065;27;45505;-82
2022/05/19 01:01:52;;;;;;;;;12.50;10.75;;;;;25.07;55.53;101342.69;2459693;27;46318;-80
2022/05/19 01:03:04;;;;;;;;;13.00;10.00;;;;;25.07;55.53;101348.06;2460076;27;45200;-83
2022/05/19 01:04:24;;;;;;;;;12.00;12.00;;;;;25.06;55.20;101359.81;2460460;27;45350;-83
2022/05/19 01:05:48;;;;;;;;;14.00;13.00;;;;;25.04;55.55;101341.13;2460883;27;44578;-81
2022/05/19 01:07:04;;;;;;;;;14.50;13.75;;;;;25.04;55.61;101342.94;2460577;27;45470;-81
2022/05/19 01:08:53;;;;;;;;;16.25;13.25;;;;;25.03;55.90;101339.44;2460762;27;45175;-81
2022/05/19 01:10:05;;;;;;;;;13.75;13.75;;;;;25.00;55.64;101341.50;2450084;27;46590;-81
2022/05/19 01:11:16;;;;;;;;;13.25;12.75;;;;;24.97;55.70;101336.38;2453513;27;44758;-81
2022/05/19 01:12:29;;;;;;;;;14.00;13.50;;;;;24.99;56.31;101342.50;2455214;27;45420;-81
2022/05/19 01:13:39;;;;;;;;;12.00;11.75;;;;;24.95;55.69;101339.19;2459966;27;45455;-81
2022/05/19 01:14:49;;;;;;;;;12.50;11.50;;;;;24.96;56.06;101330.16;2459648;27;45399;-82
2022/05/19 01:16:00;;;;;;;;;12.25;11.25;;;;;24.93;55.75;101328.59;2460719;27;45364;-81
2022/05/19 01:17:11;;;;;;;;;14.25;11.75;;;;;24.94;56.00;101334.81;2460508;27;45604;-81
2022/05/19 01:18:21;;;;;;;;;12.00;11.00;;;;;24.91;56.14;101333.25;2460614;27;46488;-81
2022/05/19 01:19:36;;;;;;;;;16.25;13.00;;;;;24.91;56.03;101340.44;2460170;27;45503;-81
2022/05/19 01:20:47;;;;;;;;;12.75;12.75;;;;;24.88;56.10;101330.81;2459876;27;44828;-80
2022/05/19 01:22:12;;;;;;;;;14.75;14.75;;;;;24.88;55.87;101335.31;2460656;27;45439;-81
2022/05/19 01:24:11;;;;;;;;;15.00;14.00;;;;;24.89;55.98;101337.88;2460854;27;44625;-80
2022/05/19 01:25:24;;;;;;;;;15.75;14.75;;;;;24.86;55.97;101335.47;2428839;27;45496;-80
2022/05/19 01:26:48;;;;;;;;;12.75;12.25;;;;;24.84;56.24;101332.06;2460166;27;45451;-80
2022/05/19 01:27:58;;;;;;;;;18.25;12.25;;;;;24.81;56.05;101335.00;2449902;28;48350;-79
2022/05/19 01:29:12;;;;;;;;;11.50;10.75;;;;;24.79;56.39;101328.91;2457880;27;44871;-81
2022/05/19 01:30:22;;;;;;;;;14.00;12.50;;;;;24.79;56.42;101328.91;2460159;27;45577;-81
2022/05/19 01:31:37;;;;;;;;;15.50;12.50;;;;;24.78;56.62;101330.75;2460381;27;45268;-81
2022/05/19 01:32:47;;;;;;;;;16.25;15.00;;;;;24.76;56.33;101324.66;2460428;27;45419;-81
2022/05/19 01:33:59;;;;;;;;;15.75;13.50;;;;;24.77;56.41;101334.41;2460591;27;45300;-80
2022/05/19 01:35:10;;;;;;;;;15.25;13.25;;;;;24.76;56.41;101331.84;2459787;27;45412;-80
2022/05/19 01:36:21;;;;;;;;;11.00;11.00;;;;;24.73;56.53;101325.75;2460572;27;44681;-80
2022/05/19 01:37:32;;;;;;;;;12.25;12.25;;;;;24.76;56.93;101339.91;2459167;27;48004;-79
2022/05/19 01:38:42;;;;;;;;;16.00;14.25;;;;;24.72;56.87;101329.41;2459751;27;45230;-79
2022/05/19 01:40:06;;;;;;;;;12.75;12.75;;;;;24.75;56.80;101332.81;2461159;27;45265;-79
2022/05/19 01:41:38;;;;;;;;;13.00;13.00;;;;;24.73;56.80;101331.13;2459889;27;45234;-79
2022/05/19 01:42:57;;;;;;;;;15.75;13.50;;;;;24.72;56.84;101325.88;2462208;27;45348;-85
2022/05/19 01:44:34;;;;;;;;;13.75;13.75;;;;;24.68;56.95;101322.59;2462096;27;44769;-86
2022/05/19 01:45:55;;;;;;;;;14.50;13.75;;;;;24.69;56.51;101329.66;2452343;27;45281;-85
2022/05/19 01:47:43;;;;;;;;;15.00;11.25;;;;;24.69;56.78;101336.91;2462082;27;45215;-85
2022/05/19 01:48:57;;;;;;;;;12.00;10.75;;;;;24.66;56.79;101335.31;2456279;27;46341;-84
2022/05/19 01:50:13;;;;;;;;;14.50;14.25;;;;;24.65;57.03;101336.28;2462242;27;45377;-85
2022/05/19 01:51:37;;;;;;;;;17.25;13.25;;;;;24.65;57.11;101336.28;2461199;27;45325;-84
2022/05/19 01:53:18;;;;;;;;;12.50;11.75;;;;;24.64;57.26;101337.28;2461387;27;45250;-84
2022/05/19 01:54:47;;;;;;;;;16.00;14.50;;;;;24.62;57.14;101333.84;2461360;27;46413;-85
2022/05/19 01:56:13;;;;;;;;;13.50;11.75;;;;;24.60;57.00;101339.38;2461776;27;45435;-88
2022/05/19 01:57:34;;;;;;;;;12.25;11.50;;;;;24.60;57.14;101336.69;2461110;27;48135;-87
2022/05/19 01:59:22;;;;;;;;;14.75;12.50;;;;;24.60;57.22;101338.50;2461394;27;44766;-87
2022/05/19 02:00:32;;;;;;;;;14.75;13.75;;;;;24.58;57.23;101343.16;2460025;27;47418;-88
2022/05/19 02:01:51;;;;;;;;;12.25;12.25;;;;;24.57;57.48;101328.03;2453935;27;45300;-88
2022/05/19 02:03:05;;;;;;;;;11.25;10.00;;;;;24.57;56.22;101334.25;2461456;27;46417;-84
2022/05/19 02:04:25;;;;;;;;;14.00;12.50;;;;;24.55;56.55;101330.84;2461224;27;44719;-83
2022/05/19 02:05:54;;;;;;;;;12.50;11.00;;;;;24.58;57.16;101337.78;2462047;27;45444;-82
2022/05/19 02:07:09;;;;;;;;;13.00;13.00;;;;;24.55;57.46;101329.97;2462016;27;45222;-82
2022/05/19 02:08:51;;;;;;;;;14.25;11.25;;;;;24.54;57.57;101334.53;2461802;27;45507;-83
2022/05/19 02:10:13;;;;;;;;;16.75;16.75;;;;;24.55;57.39;101332.66;2439931;28;45471;-84
2022/05/19 02:11:29;;;;;;;;;13.25;12.00;;;;;24.52;57.56;101333.78;2460190;27;45457;-84
2022/05/19 02:12:41;;;;;;;;;12.75;12.75;;;;;24.54;57.83;101334.53;2461690;27;45340;-83
2022/05/19 02:13:54;;;;;;;;;12.50;11.00;;;;;24.56;56.91;101334.38;2461935;27;45459;-84
2022/05/19 02:15:08;;;;;;;;;10.50;9.50;;;;;24.53;56.34;101335.50;2461795;27;45188;-84
2022/05/19 02:16:20;;;;;;;;;9.25;9.25;;;;;24.53;56.67;101329.25;2461897;27;45423;-84
2022/05/19 02:17:33;;;;;;;;;14.00;13.00;;;;;24.55;56.52;101338.03;2461207;27;44768;-83
2022/05/19 02:18:45;;;;;;;;;12.25;11.25;;;;;24.54;56.84;101330.97;2460341;27;46455;-84
2022/05/19 02:20:02;;;;;;;;;13.00;11.25;;;;;24.54;56.98;101331.84;2461726;27;44570;-83
2022/05/19 02:21:12;;;;;;;;;15.25;13.75;;;;;24.56;57.19;101339.75;2461259;27;45530;-84
2022/05/19 02:22:28;;;;;;;;;13.75;13.25;;;;;24.55;57.71;101329.97;2462036;27;45236;-84
2022/05/19 02:23:40;;;;;;;;;13.75;13.25;;;;;24.56;57.33;101337.06;2461963;27;46362;-84
2022/05/19 02:24:57;;;;;;;;;11.75;9.75;;;;;24.55;57.22;101332.66;2461964;27;45218;-84
2022/05/19 02:26:08;;;;;;;;;13.25;12.50;;;;;24.55;57.77;101330.84;2461843;27;46240;-84
2022/05/19 02:27:44;;;;;;;;;13.00;12.50;;;;;24.55;57.57;101330.84;2462020;27;44784;-84
2022/05/19 02:29:06;;;;;;;;;14.75;13.00;;;;;24.57;57.77;101334.25;2461072;27;45385;-82
2022/05/19 02:30:24;;;;;;;;;14.00;13.75;;;;;24.55;57.72;101335.34;2461589;27;45166;-81
2022/05/19 02:31:34;;;;;;;;;12.00;12.00;;;;;24.55;57.89;101328.16;2452075;27;45198;-81
2022/05/19 02:32:45;;;;;;;;;13.25;12.75;;;;;24.53;57.71;101329.25;2459553;27;45218;-81
2022/05/19 02:33:56;;;;;;;;;14.25;13.00;;;;;24.54;57.93;101325.59;2461780;27;45633;-83
2022/05/19 02:35:07;;;;;;;;;11.00;10.00;;;;;24.54;57.63;101336.34;2461899;27;45197;-82
2022/05/19 02:36:18;;;;;;;;;14.00;13.00;;;;;24.53;57.03;101335.50;2461890;27;45375;-82
2022/05/19 02:37:28;;;;;;;;;13.00;11.25;;;;;24.55;57.26;101338.03;2460891;27;45278;-82
2022/05/19 02:38:39;;;;;;;;;11.00;10.00;;;;;24.54;57.29;101336.34;2461397;27;45407;-82
2022/05/19 02:39:49;;;;;;;;;13.75;12.00;;;;;24.53;57.71;101338.19;2461523;27;45400;-82
2022/05/19 02:41:00;;;;;;;;;15.00;14.00;;;;;24.53;57.45;101329.25;2461704;27;45317;-83
2022/05/19 02:42:10;;;;;;;;;14.25;14.25;;;;;24.54;57.63;101331.84;2461635;27;45405;-83
2022/05/19 02:43:21;;;;;;;;;12.75;12.75;;;;;24.53;57.74;101338.19;2461840;27;45597;-83
2022/05/19 02:44:31;;;;;;;;;13.50;12.00;;;;;24.54;58.01;101339.91;2461490;27;45443;-83
2022/05/19 02:45:43;;;;;;;;;15.75;14.25;;;;;24.52;57.90;101331.09;2461637;27;46448;-83
2022/05/19 02:46:53;;;;;;;;;11.50;11.50;;;;;24.52;58.16;101333.78;2461903;27;45281;-83
2022/05/19 02:48:05;;;;;;;;;12.50;10.50;;;;;24.54;57.82;101339.03;2460790;27;46402;-83
2022/05/19 02:49:15;;;;;;;;;15.50;13.25;;;;;24.54;58.33;101341.72;2461881;27;45280;-83
2022/05/19 02:50:26;;;;;;;;;13.75;13.00;;;;;24.52;58.10;101327.56;2460890;27;45485;-83
2022/05/19 02:51:37;;;;;;;;;13.00;12.75;;;;;24.51;57.87;101337.47;2461773;27;45479;-82
2022/05/19 02:52:48;;;;;;;;;16.00;14.50;;;;;24.50;57.93;101331.22;2461611;27;45434;-81
2022/05/19 02:53:58;;;;;;;;;13.25;12.75;;;;;24.53;57.60;101343.56;2461954;27;45228;-81
2022/05/19 02:55:10;;;;;;;;;12.00;11.50;;;;;24.52;57.60;101339.16;2461246;27;45396;-81
2022/05/19 02:56:20;;;;;;;;;16.25;14.00;;;;;24.50;57.83;101339.28;2461804;27;45495;-81
2022/05/19 02:57:32;;;;;;;;;12.00;11.25;;;;;24.51;57.64;101337.47;2461057;27;45440;-81
2022/05/19 02:58:42;;;;;;;;;16.00;13.75;;;;;24.50;57.96;101338.44;2454092;27;45226;-81
2022/05/19 02:59:53;;;;;;;;;15.50;12.25;;;;;24.50;57.88;101341.97;2453699;27;45534;-81
2022/05/19 03:01:07;;;;;;;;;16.25;16.00;;;;;24.52;58.06;101338.31;2461739;27;45272;-81
2022/05/19 03:02:18;;;;;;;;;13.00;13.00;;;;;24.52;57.74;101338.31;2460706;27;45346;-80
2022/05/19 03:03:28;;;;;;;;;13.00;12.50;;;;;24.47;57.94;101331.47;2461660;27;45322;-82
2022/05/19 03:04:39;;;;;;;;;12.25;12.25;;;;;24.50;57.01;101333.06;2461705;27;46404;-81
2022/05/19 03:05:49;;;;;;;;;13.25;13.00;;;;;24.48;57.20;101332.34;2461341;27;44730;-81
2022/05/19 03:07:00;;;;;;;;;14.00;13.00;;;;;24.48;57.58;101337.72;2461304;27;45352;-81
2022/05/19 03:08:11;;;;;;;;;11.50;11.50;;;;;24.50;57.88;101341.13;2460749;27;44763;-84
2022/05/19 03:09:21;;;;;;;;;20.25;15.25;;;;;24.47;58.08;101336.84;2461594;27;46140;-84
2022/05/19 03:10:32;;;;;;;;;14.50;13.50;;;;;24.47;57.18;101338.72;2461579;27;45353;-83
2022/05/19 03:11:43;;;;;;;;;11.50;11.50;;;;;24.44;57.34;101342.50;2461391;27;45599;-84
2022/05/19 03:12:55;;;;;;;;;13.25;12.25;;;;;24.44;57.90;101342.50;2461608;27;45248;-85
2022/05/19 03:14:06;;;;;;;;;8.25;8.25;;;;;24.44;57.18;101342.50;2460569;27;46167;-84
2022/05/19 03:15:16;;;;;;;;;11.75;11.75;;;;;24.44;57.41;101342.50;2461537;27;45144;-84
2022/05/19 03:16:26;;;;;;;;;14.25;12.75;;;;;24.45;57.72;101341.50;2461562;27;46438;-83
2022/05/19 03:17:37;;;;;;;;;14.25;12.75;;;;;24.44;57.86;101337.13;2460972;27;45402;-83
2022/05/19 03:18:48;;;;;;;;;14.25;13.25;;;;;24.45;58.09;101333.44;2460906;27;45518;-84
2022/05/19 03:19:58;;;;;;;;;14.75;14.00;;;;;24.45;58.01;101336.13;2461667;27;45428;-84
2022/05/19 03:21:09;;;;;;;;;13.75;13.75;;;;;24.43;58.26;101332.72;2461488;27;45415;-83
2022/05/19 03:22:19;;;;;;;;;13.00;12.25;;;;;24.44;58.07;101338.97;2461470;27;45446;-82
2022/05/19 03:23:30;;;;;;;;;14.00;13.00;;;;;24.43;58.19;101327.34;2461394;27;45307;-81
2022/05/19 03:24:40;;;;;;;;;17.00;12.75;;;;;24.43;58.34;101332.72;2461615;27;44678;-80
2022/05/19 03:25:50;;;;;;;;;13.00;12.00;;;;;24.43;57.94;101334.56;2460620;27;45383;-82
2022/05/19 03:27:01;;;;;;;;;14.00;13.00;;;;;24.44;57.52;101336.28;2460644;27;45194;-82
2022/05/19 03:28:13;;;;;;;;;13.75;13.00;;;;;24.41;58.08;101333.84;2460449;27;46070;-82
2022/05/19 03:29:23;;;;;;;;;12.50;12.50;;;;;24.42;57.52;101333.69;2460659;27;44550;-83
2022/05/19 03:30:35;;;;;;;;;12.25;11.50;;;;;24.40;56.86;101330.28;2461280;27;45534;-83
2022/05/19 03:31:46;;;;;;;;;11.25;10.75;;;;;24.42;56.72;101341.75;2461426;27;45416;-84
2022/05/19 03:32:56;;;;;;;;;13.75;12.00;;;;;24.39;56.87;101340.19;2461285;27;45426;-83
2022/05/19 03:34:06;;;;;;;;;16.75;15.00;;;;;24.39;57.71;101334.84;2461441;27;44651;-84
2022/05/19 03:35:17;;;;;;;;;13.75;13.50;;;;;24.39;57.33;101336.66;2461070;27;46490;-83
2022/05/19 03:36:28;;;;;;;;;14.00;11.25;;;;;24.41;57.85;101336.53;2460732;27;44755;-83
2022/05/19 03:37:38;;;;;;;;;17.50;13.00;;;;;24.39;57.99;101333.97;2461136;27;45467;-83
2022/05/19 03:38:48;;;;;;;;;13.75;11.50;;;;;24.39;58.26;101328.59;2461093;27;45363;-82
2022/05/19 03:39:59;;;;;;;;;14.75;11.50;;;;;24.37;57.91;101331.41;2461194;27;45409;-82
2022/05/19 03:41:09;;;;;;;;;14.75;11.50;;;;;24.38;57.87;101332.25;2461359;27;45417;-81
2022/05/19 03:42:20;;;;;;;;;11.50;10.75;;;;;24.37;57.99;101327.88;2461427;27;45368;-81
2022/05/19 03:43:31;;;;;;;;;17.00;14.50;;;;;24.37;57.86;101327.88;2461328;27;45308;-81
2022/05/19 03:44:41;;;;;;;;;14.75;14.00;;;;;24.37;58.45;101326.03;2460992;27;45368;-81
2022/05/19 03:45:52;;;;;;;;;14.00;12.50;;;;;24.36;58.34;101334.22;2460932;27;45352;-84
2022/05/19 03:47:03;;;;;;;;;18.50;17.00;;;;;24.36;58.66;101328.84;2460783;27;46786;-82
2022/05/19 03:48:15;;;;;;;;;13.50;13.50;;;;;24.36;58.55;101334.22;2460460;27;46657;-83
2022/05/19 03:49:25;;;;;;;;;14.00;14.00;;;;;24.35;58.13;101327.13;2461279;27;46523;-83
2022/05/19 03:50:36;;;;;;;;;12.50;10.50;;;;;24.35;58.50;101333.34;2461220;27;45236;-83
2022/05/19 03:51:46;;;;;;;;;14.75;12.50;;;;;24.34;58.09;101325.44;2461159;27;45447;-83
2022/05/19 03:52:57;;;;;;;;;12.75;11.75;;;;;24.34;58.71;101342.41;2461316;27;45261;-84
2022/05/19 03:54:07;;;;;;;;;14.00;13.00;;;;;24.33;58.41;101339.84;2460824;27;45546;-83
2022/05/19 03:55:17;;;;;;;;;13.25;12.75;;;;;24.33;58.57;101340.69;2461302;27;45315;-83
2022/05/19 03:56:28;;;;;;;;;14.75;13.25;;;;;24.31;58.56;101331.91;2461145;27;45439;-83
2022/05/19 03:57:39;;;;;;;;;13.25;13.25;;;;;24.33;58.49;101347.91;2460807;27;45269;-82
2022/05/19 03:58:50;;;;;;;;;11.50;11.50;;;;;24.31;58.16;101337.28;2460714;27;45494;-81
2022/05/19 04:00:01;;;;;;;;;12.25;11.00;;;;;24.29;57.43;101333.88;2460899;27;45652;-81
2022/05/19 04:01:12;;;;;;;;;11.50;11.50;;;;;24.30;58.32;101334.75;2460672;27;46775;-82
2022/05/19 04:02:22;;;;;;;;;13.00;12.75;;;;;24.31;58.60;101342.66;2460392;27;45222;-81
2022/05/19 04:03:33;;;;;;;;;13.50;12.25;;;;;24.28;58.44;101341.09;2460737;27;46115;-81
2022/05/19 04:04:43;;;;;;;;;14.00;13.00;;;;;24.28;58.41;101345.59;2461353;27;44643;-81
2022/05/19 04:05:53;;;;;;;;;20.75;13.75;;;;;24.27;58.10;101339.34;2461039;27;45222;-81
2022/05/19 04:07:04;;;;;;;;;14.75;13.75;;;;;24.26;58.39;101344.88;2459905;27;45218;-81
2022/05/19 04:08:14;;;;;;;;;13.25;13.25;;;;;24.27;58.48;101342.03;2460709;27;46543;-81
2022/05/19 04:09:25;;;;;;;;;12.00;12.00;;;;;24.26;58.62;101344.88;2461081;27;45278;-81
2022/05/19 04:10:42;;;;;;;;;17.00;14.00;;;;;24.26;58.96;101343.03;2461041;27;45340;-81
2022/05/19 04:11:52;;;;;;;;;14.00;13.25;;;;;24.25;58.75;101333.25;2461213;27;44537;-81
2022/05/19 04:13:03;;;;;;;;;11.50;10.50;;;;;24.24;57.42;101342.28;2460625;27;45450;-82
2022/05/19 04:14:13;;;;;;;;;14.25;12.50;;;;;24.23;58.03;101331.66;2461021;27;44578;-81
2022/05/19 04:15:24;;;;;;;;;16.50;13.00;;;;;24.25;58.31;101341.31;2460912;27;46385;-80
2022/05/19 04:16:34;;;;;;;;;14.00;12.75;;;;;24.24;58.79;101339.59;2460798;27;44774;-80
2022/05/19 04:17:44;;;;;;;;;16.50;15.25;;;;;24.23;59.21;101337.88;2460595;27;46348;-80
2022/05/19 04:18:55;;;;;;;;;15.50;12.75;;;;;24.25;58.64;101341.31;2460754;27;45172;-81
2022/05/19 04:20:08;;;;;;;;;14.00;13.00;;;;;24.23;58.79;101337.88;2460810;27;46168;-81
2022/05/19 04:21:19;;;;;;;;;15.50;15.00;;;;;24.24;58.68;101342.28;2460781;27;44689;-80
2022/05/19 04:22:30;;;;;;;;;14.50;12.50;;;;;24.23;58.80;101328.97;2460845;27;45698;-80
2022/05/19 04:23:40;;;;;;;;;17.00;14.00;;;;;24.21;59.06;101329.09;2461183;27;45357;-80
2022/05/19 04:24:51;;;;;;;;;14.25;14.25;;;;;24.24;58.91;101331.56;2460838;27;45360;-80
2022/05/19 04:26:01;;;;;;;;;14.25;13.00;;;;;24.21;58.85;101325.56;2460277;27;44722;-80
2022/05/19 04:27:14;;;;;;;;;13.25;13.25;;;;;24.23;58.90;101335.19;2460521;27;45305;-80
2022/05/19 04:28:24;;;;;;;;;15.00;15.00;;;;;24.22;59.13;101327.28;2460323;27;44703;-80
2022/05/19 04:29:34;;;;;;;;;13.50;13.00;;;;;24.21;58.66;101331.78;2460633;27;45188;-80
2022/05/19 04:30:45;;;;;;;;;11.25;11.25;;;;;24.20;58.43;101330.06;2460466;27;45159;-83
2022/05/19 04:31:55;;;;;;;;;15.25;14.25;;;;;24.20;58.79;101327.38;2460368;27;46172;-83
2022/05/19 04:33:05;;;;;;;;;15.00;14.00;;;;;24.20;59.28;101329.25;2461154;27;45206;-84
2022/05/19 04:34:16;;;;;;;;;15.75;14.25;;;;;24.21;59.24;101329.09;2460752;27;45249;-83
2022/05/19 04:35:26;;;;;;;;;16.25;13.50;;;;;24.19;59.25;101336.44;2460015;27;45593;-83
2022/05/19 04:36:37;;;;;;;;;14.00;13.00;;;;;24.21;58.88;101339.00;2460246;27;46492;-83
2022/05/19 04:37:48;;;;;;;;;12.50;12.50;;;;;24.20;59.06;101337.31;2460877;27;45424;-83
2022/05/19 04:38:58;;;;;;;;;13.00;12.00;;;;;24.19;59.00;101339.13;2460390;27;46093;-82
2022/05/19 04:40:10;;;;;;;;;13.25;13.25;;;;;24.18;58.82;101337.41;2460346;27;45261;-83
2022/05/19 04:41:20;;;;;;;;;14.50;13.75;;;;;24.20;58.97;101345.34;2460821;27;46117;-82
2022/05/19 04:42:31;;;;;;;;;12.50;12.50;;;;;24.20;59.26;101343.50;2461044;27;45211;-82
2022/05/19 04:43:41;;;;;;;;;11.25;11.25;;;;;24.18;59.22;101342.78;2460741;27;45462;-82
2022/05/19 04:44:54;;;;;;;;;17.00;15.25;;;;;24.18;58.91;101337.41;2460356;27;45285;-82
2022/05/19 04:46:04;;;;;;;;;13.50;12.75;;;;;24.19;59.07;101341.81;2460064;27;46140;-82
2022/05/19 04:47:14;;;;;;;;;16.00;13.50;;;;;24.18;59.11;101345.47;2460918;27;45217;-82
2022/05/19 04:48:25;;;;;;;;;16.00;14.00;;;;;24.20;59.23;101345.34;2460470;27;45226;-82
2022/05/19 04:49:36;;;;;;;;;18.50;13.75;;;;;24.19;59.37;101339.13;2460867;27;45187;-82
2022/05/19 04:50:51;;;;;;;;;14.50;14.25;;;;;24.21;59.35;101350.59;2460428;27;45565;-82
2022/05/19 04:52:01;;;;;;;;;15.50;13.75;;;;;24.20;59.33;101351.56;2460915;27;44682;-82
2022/05/19 04:53:13;;;;;;;;;19.00;16.00;;;;;24.20;59.56;101345.34;2461713;27;45239;-83
2022/05/19 04:54:24;;;;;;;;;15.50;13.75;;;;;24.22;59.35;101346.06;2460878;27;45241;-83
2022/05/19 04:55:37;;;;;;;;;17.50;14.50;;;;;24.21;59.54;101350.59;2460425;27;45184;-81
2022/05/19 04:56:47;;;;;;;;;20.25;14.50;;;;;24.21;59.36;101353.28;2454712;27;45242;-82
2022/05/19 04:57:57;;;;;;;;;17.00;14.25;;;;;24.21;59.80;101347.03;2460282;27;46238;-82
2022/05/19 04:59:14;;;;;;;;;14.50;13.00;;;;;24.22;59.11;101356.81;2460791;27;45257;-82
2022/05/19 05:00:25;;;;;;;;;11.75;10.75;;;;;24.23;58.60;101356.69;2459860;27;46205;-82
2022/05/19 05:01:35;;;;;;;;;12.25;12.00;;;;;24.20;58.73;101351.56;2460291;27;44724;-82
2022/05/19 05:02:45;;;;;;;;;16.75;14.75;;;;;24.25;59.05;101364.59;2460204;27;45321;-82
2022/05/19 05:03:56;;;;;;;;;11.75;11.75;;;;;24.21;58.86;101364.03;2460627;27;45478;-82
2022/05/19 05:05:07;;;;;;;;;14.75;12.50;;;;;24.22;57.77;101362.19;2460559;27;45302;-82
2022/05/19 05:06:17;;;;;;;;;14.25;13.50;;;;;24.21;58.61;101369.38;2460821;27;45319;-82
2022/05/19 05:07:28;;;;;;;;;11.25;9.75;;;;;24.22;58.03;101375.63;2460159;27;45416;-82
2022/05/19 05:08:38;;;;;;;;;16.25;15.25;;;;;24.21;58.83;101390.88;2460340;27;45159;-82
2022/05/19 05:09:49;;;;;;;;;11.50;8.75;;;;;24.21;57.38;101396.25;2460571;27;45392;-85
2022/05/19 05:10:59;;;;;;;;;13.50;11.50;;;;;24.23;57.28;101404.16;2459403;27;45278;-85
2022/05/19 05:12:10;;;;;;;;;13.00;11.00;;;;;24.22;57.06;101391.72;2460216;27;46423;-85
2022/05/19 05:13:20;;;;;;;;;11.00;10.50;;;;;24.24;56.80;101404.06;2460641;27;45462;-85
2022/05/19 05:14:30;;;;;;;;;11.25;11.25;;;;;24.26;57.44;101428.97;2462074;27;46270;-85
2022/05/19 05:15:42;;;;;;;;;8.75;8.75;;;;;24.26;56.78;101444.25;2462492;27;45443;-86
2022/05/19 05:16:54;;;;;;;;;14.25;12.50;;;;;24.25;57.64;101462.19;2462295;27;46259;-85
2022/05/19 05:18:05;;;;;;;;;10.00;9.25;;;;;24.25;56.61;101455.91;2461862;27;45268;-85
2022/05/19 05:19:22;;;;;;;;;16.50;15.25;;;;;24.24;57.69;101440.78;2462144;27;46271;-84
2022/05/19 05:20:33;;;;;;;;;13.50;13.50;;;;;24.26;58.40;101410.19;2462620;27;45265;-84
2022/05/19 05:21:43;;;;;;;;;13.75;12.75;;;;;24.26;58.30;101398.59;2462341;27;45271;-84
2022/05/19 05:22:54;;;;;;;;;13.00;12.00;;;;;24.27;58.15;101409.19;2462040;27;45353;-84
2022/05/19 05:24:04;;;;;;;;;12.25;12.25;;;;;24.30;57.13;101428.75;2462418;27;46632;-85
2022/05/19 05:25:15;;;;;;;;;11.25;10.25;;;;;24.28;56.52;101437.78;2462501;27;45188;-84
2022/05/19 05:26:26;;;;;;;;;13.00;13.00;;;;;24.31;56.29;101446.53;2462319;27;46191;-84
2022/05/19 05:27:37;;;;;;;;;13.00;13.00;;;;;24.32;56.67;101445.59;2462063;27;45269;-83
2022/05/19 05:28:48;;;;;;;;;11.75;10.50;;;;;24.30;56.49;101434.13;2461550;27;45453;-83
2022/05/19 05:29:58;;;;;;;;;11.75;11.75;;;;;24.32;57.42;101435.69;2461867;27;45407;-81
2022/05/19 05:31:08;;;;;;;;;12.75;12.75;;;;;24.32;57.83;101430.31;2462230;27;45440;-81
2022/05/19 05:32:19;;;;;;;;;12.25;12.25;;;;;24.35;57.34;101439.94;2462802;27;44817;-79
2022/05/19 05:33:29;;;;;;;;;14.25;13.75;;;;;24.37;57.86;101448.75;2472379;27;45357;-78
2022/05/19 05:34:40;;;;;;;;;15.00;15.00;;;;;24.38;58.37;101442.38;2462522;27;45331;-79
2022/05/19 05:35:50;;;;;;;;;15.75;15.75;;;;;24.36;57.80;101450.59;2461634;27;46700;-77
2022/05/19 05:37:03;;;;;;;;;15.00;14.25;;;;;24.39;57.81;101449.47;2461412;27;45381;-80